Time;durP1;ratioP1;P1;durP2;ratioP2;P2;SDS_P1;SDS_P2;PMS_P1;PMS_P2;Temp;Humidity;BMP_temperature;BMP_pressure;BME280_temperature;BME280_humidity;BME280_pressure;Samples;Min_cycle;Max_cycle;Signal;HPM_P1;HPM_P2
2022/09/20 00:00:21;;;;;;;;;;;8.60;74.30;;;;;;4201313;28;20128;-85
2022/09/20 00:02:22;;;;;;;2.88;0.73;;;8.50;74.70;;;;;;4214610;28;19916;-85
2022/09/20 00:04:23;;;;;;;2.65;0.80;;;8.50;74.00;;;;;;4203928;28;20039;-85
2022/09/20 00:06:26;;;;;;;3.97;0.50;;;8.50;74.00;;;;;;4196706;28;20492;-85
2022/09/20 00:08:27;;;;;;;2.70;0.60;;;8.50;74.00;;;;;;4206160;28;20028;-85
2022/09/20 00:10:29;;;;;;;2.30;0.60;;;8.50;74.10;;;;;;4198764;28;20056;-85
2022/09/20 00:12:30;;;;;;;3.20;0.57;;;8.40;74.10;;;;;;4197607;28;20043;-84
2022/09/20 00:14:31;;;;;;;4.38;0.77;;;8.40;74.20;;;;;;4192006;28;20147;-84
2022/09/20 00:16:34;;;;;;;3.15;0.70;;;8.40;74.30;;;;;;4201073;28;20040;-85
2022/09/20 00:18:36;;;;;;;7.05;0.75;;;8.50;74.50;;;;;;4217474;28;20031;-86
2022/09/20 00:20:44;;;;;;;1.10;0.50;;;8.50;74.60;;;;;;4199877;28;20025;-85
2022/09/20 00:22:48;;;;;;;4.97;0.73;;;8.40;74.60;;;;;;4199125;28;20020;-85
2022/09/20 00:24:48;;;;;;;1.25;0.68;;;8.40;74.70;;;;;;4190062;28;20107;-85
2022/09/20 00:26:50;;;;;;;5.68;0.80;;;8.40;74.80;;;;;;4202018;28;20024;-84
2022/09/20 00:28:51;;;;;;;3.38;0.90;;;8.40;74.80;;;;;;4204356;28;20032;-85
2022/09/20 00:30:53;;;;;;;3.60;0.70;;;8.40;74.80;;;;;;4200614;28;20648;-85
2022/09/20 00:32:53;;;;;;;2.75;0.80;;;8.40;74.90;;;;;;4200750;28;20063;-84
2022/09/20 00:35:12;;;;;;;3.72;0.82;;;8.40;74.90;;;;;;4200223;28;20110;-85
2022/09/20 00:37:12;;;;;;;1.48;0.60;;;8.40;74.90;;;;;;4203147;28;20037;-84
2022/09/20 00:39:14;;;;;;;2.22;0.65;;;8.40;74.90;;;;;;4201790;28;20089;-85
2022/09/20 00:41:15;;;;;;;3.22;0.60;;;8.30;74.80;;;;;;4200090;28;20107;-86
2022/09/20 00:43:16;;;;;;;1.33;0.65;;;8.30;74.80;;;;;;4202516;28;20024;-85
2022/09/20 00:45:27;;;;;;;3.78;0.60;;;8.30;74.80;;;;;;4199810;28;20031;-84
2022/09/20 00:47:51;;;;;;;6.22;1.00;;;8.30;74.80;;;;;;4201733;28;20039;-85
2022/09/20 00:49:57;;;;;;;4.03;0.75;;;8.40;74.90;;;;;;4200494;28;20476;-85
2022/09/20 00:52:01;;;;;;;2.95;0.55;;;8.30;74.70;;;;;;4198783;28;20035;-84
2022/09/20 00:54:05;;;;;;;1.77;0.70;;;8.40;74.80;;;;;;4197966;28;20112;-84
2022/09/20 00:56:13;;;;;;;4.60;0.85;;;8.30;74.70;;;;;;4203757;28;20028;-85
2022/09/20 00:58:14;;;;;;;1.10;0.50;;;8.30;74.70;;;;;;4203645;28;20040;-85
2022/09/20 01:00:15;;;;;;;5.40;0.65;;;8.20;74.70;;;;;;4200652;28;20024;-85
2022/09/20 01:02:25;;;;;;;2.92;0.68;;;8.30;74.70;;;;;;4203502;28;20025;-84
2022/09/20 01:04:27;;;;;;;6.05;0.75;;;8.30;74.80;;;;;;4206575;28;20766;-85
2022/09/20 01:06:29;;;;;;;4.38;0.75;;;8.20;74.80;;;;;;4201898;28;20032;-85
2022/09/20 01:08:31;;;;;;;6.03;0.77;;;8.20;74.80;;;;;;4201155;28;20032;-85
2022/09/20 01:10:32;;;;;;;5.90;0.75;;;8.30;75.00;;;;;;4204466;28;20032;-85
2022/09/20 01:12:34;;;;;;;1.77;0.63;;;8.20;75.60;;;;;;4204171;28;20111;-85
2022/09/20 01:14:35;;;;;;;10.48;1.20;;;8.10;74.90;;;;;;4201704;28;20031;-85
2022/09/20 01:16:36;;;;;;;5.82;0.82;;;8.20;75.10;;;;;;4202656;28;20114;-85
2022/09/20 01:18:38;;;;;;;5.28;0.82;;;8.20;75.20;;;;;;4203279;28;20100;-85
2022/09/20 01:20:43;;;;;;;3.72;0.90;;;8.10;75.00;;;;;;4204010;28;20077;-84
2022/09/20 01:23:22;;;;;;;9.55;1.15;;;8.20;75.20;;;;;;4203068;28;20093;-85
2022/09/20 01:26:00;;;;;;;6.28;0.90;;;8.20;75.50;;;;;;4205242;28;20034;-84
2022/09/20 01:28:01;;;;;;;7.35;1.27;;;8.10;75.40;;;;;;4198511;28;20051;-85
2022/09/20 01:30:08;;;;;;;8.38;1.00;;;8.10;75.30;;;;;;4205905;28;20040;-84
2022/09/20 01:32:19;;;;;;;5.45;0.90;;;8.20;75.40;;;;;;4201522;28;20032;-84
2022/09/20 01:34:34;;;;;;;6.00;1.02;;;8.10;75.30;;;;;;4207487;28;20116;-84
2022/09/20 01:36:41;;;;;;;4.22;0.93;;;8.10;75.50;;;;;;4199262;28;20511;-84
2022/09/20 01:39:04;;;;;;;10.65;1.23;;;8.10;75.40;;;;;;4202402;28;20035;-84
2022/09/20 01:41:23;;;;;;;7.10;1.17;;;8.20;75.50;;;;;;4202503;28;20542;-84
2022/09/20 01:43:50;;;;;;;4.68;0.90;;;8.10;75.40;;;;;;4205721;28;20510;-84
2022/09/20 01:45:52;;;;;;;7.90;1.15;;;8.10;75.60;;;;;;4204954;28;20043;-85
2022/09/20 01:48:14;;;;;;;8.63;1.38;;;8.10;75.50;;;;;;4199752;28;20706;-85
2022/09/20 01:50:46;;;;;;;4.85;1.25;;;8.10;75.70;;;;;;4218193;27;20079;-85
2022/09/20 01:53:31;;;;;;;3.33;1.00;;;8.10;75.60;;;;;;4202901;28;20028;-85
2022/09/20 01:55:40;;;;;;;7.75;1.65;;;8.10;76.50;;;;;;4200272;28;20070;-85
2022/09/20 01:58:00;;;;;;;6.43;1.00;;;8.20;75.60;;;;;;4202035;28;20016;-85
2022/09/20 02:00:04;;;;;;;4.22;1.05;;;8.10;76.40;;;;;;4198670;28;20587;-85
2022/09/20 02:02:22;;;;;;;7.60;1.00;;;8.10;75.70;;;;;;4203228;28;20039;-84
2022/09/20 02:04:28;;;;;;;7.30;1.23;;;8.10;75.80;;;;;;4206007;28;20070;-85
2022/09/20 02:07:06;;;;;;;9.65;1.08;;;8.10;75.90;;;;;;4203902;28;20027;-85
2022/09/20 02:09:16;;;;;;;5.32;0.90;;;8.10;76.10;;;;;;4205633;28;20043;-85
2022/09/20 02:11:20;;;;;;;8.15;1.38;;;8.10;76.00;;;;;;4209109;28;20028;-85
2022/09/20 02:13:40;;;;;;;9.20;1.05;;;8.10;76.10;;;;;;4206463;28;20051;-85
2022/09/20 02:16:25;;;;;;;5.57;0.93;;;8.10;76.30;;;;;;4200965;28;20105;-85
2022/09/20 02:18:44;;;;;;;7.97;1.30;;;8.10;76.40;;;;;;4196417;28;20656;-85
2022/09/20 02:21:04;;;;;;;7.85;1.23;;;8.10;76.40;;;;;;4191297;28;20040;-85
2022/09/20 02:23:35;;;;;;;8.43;1.23;;;8.10;76.30;;;;;;4205917;28;20035;-86
2022/09/20 02:25:53;;;;;;;5.15;0.88;;;8.10;76.40;;;;;;4207387;28;20031;-85
2022/09/20 02:28:09;;;;;;;5.85;1.63;;;8.10;76.40;;;;;;4211369;28;20423;-85
2022/09/20 02:30:40;;;;;;;9.73;0.82;;;8.10;76.40;;;;;;4204195;28;20086;-85
2022/09/20 02:32:59;;;;;;;8.05;1.25;;;8.10;76.60;;;;;;4202336;28;20028;-85
2022/09/20 02:35:12;;;;;;;9.20;1.00;;;8.10;76.40;;;;;;4202155;28;20150;-85
2022/09/20 02:37:37;;;;;;;5.28;1.08;;;8.10;76.30;;;;;;4195655;28;20032;-86
2022/09/20 02:40:00;;;;;;;7.97;1.23;;;8.10;76.30;;;;;;4203331;28;20053;-86
2022/09/20 02:42:06;;;;;;;6.57;1.08;;;8.00;76.30;;;;;;4206254;28;20024;-85
2022/09/20 02:44:28;;;;;;;4.28;0.88;;;8.10;76.30;;;;;;4207214;28;20099;-85
2022/09/20 02:47:07;;;;;;;9.27;1.08;;;8.00;76.30;;;;;;4206498;28;20038;-85
2022/09/20 02:49:28;;;;;;;8.82;1.00;;;8.00;76.40;;;;;;4203358;28;20032;-85
2022/09/20 02:51:39;;;;;;;9.57;2.17;;;8.00;76.20;;;;;;4206785;28;20538;-85
2022/09/20 02:53:58;;;;;;;5.88;1.05;;;8.00;76.20;;;;;;4205635;28;20135;-85
2022/09/20 02:56:28;;;;;;;4.43;1.00;;;8.00;76.10;;;;;;4206074;28;20028;-84
2022/09/20 02:58:46;;;;;;;11.30;1.30;;;8.00;76.30;;;;;;4204692;28;20044;-85
2022/09/20 03:01:06;;;;;;;7.30;1.40;;;8.00;76.20;;;;;;4210935;28;20028;-85
2022/09/20 03:03:19;;;;;;;6.22;1.10;;;8.00;76.10;;;;;;4216238;28;20029;-85
2022/09/20 03:05:42;;;;;;;4.95;1.08;;;7.90;76.10;;;;;;4198458;28;20129;-85
2022/09/20 03:07:49;;;;;;;12.57;1.10;;;7.90;76.30;;;;;;4203343;28;20077;-84
2022/09/20 03:10:08;;;;;;;3.92;0.73;;;7.90;76.20;;;;;;4205477;28;20055;-85
2022/09/20 03:12:40;;;;;;;11.20;0.93;;;7.90;76.40;;;;;;4201282;28;20150;-85
2022/09/20 03:15:17;;;;;;;7.35;1.00;;;7.90;76.20;;;;;;4206711;28;20101;-85
2022/09/20 03:17:54;;;;;;;10.10;1.25;;;7.80;76.30;;;;;;4187069;28;20024;-84
2022/09/20 03:20:18;;;;;;;5.93;1.00;;;7.80;76.40;;;;;;4202257;28;20384;-85
2022/09/20 03:22:48;;;;;;;7.47;1.30;;;7.80;76.50;;;;;;4185495;28;20048;-85
2022/09/20 03:25:30;;;;;;;7.13;1.15;;;7.80;76.40;;;;;;4202575;28;20032;-84
2022/09/20 03:27:52;;;;;;;7.20;1.00;;;7.80;76.60;;;;;;4189367;28;20044;-84
2022/09/20 03:30:05;;;;;;;9.48;1.20;;;7.80;76.50;;;;;;4203006;28;20035;-84
2022/09/20 03:32:28;;;;;;;9.13;1.20;;;7.80;76.60;;;;;;4205528;28;20507;-84
2022/09/20 03:34:31;;;;;;;8.90;1.10;;;7.80;76.60;;;;;;4202850;28;20617;-84
2022/09/20 03:37:09;;;;;;;8.02;1.10;;;7.80;76.50;;;;;;4200903;28;20020;-84
2022/09/20 03:39:49;;;;;;;15.52;1.17;;;7.80;76.80;;;;;;4201975;28;20032;-84
2022/09/20 03:42:16;;;;;;;4.43;0.80;;;7.80;76.90;;;;;;4182561;28;20074;-85
2022/09/20 03:44:42;;;;;;;8.65;1.42;;;7.70;76.80;;;;;;4195569;28;20056;-86
2022/09/20 03:46:45;;;;;;;11.13;1.10;;;7.80;76.80;;;;;;4200513;28;20024;-85
2022/09/20 03:49:11;;;;;;;5.75;0.73;;;7.70;76.70;;;;;;4204792;28;20036;-86
2022/09/20 03:51:27;;;;;;;14.65;1.85;;;7.70;77.00;;;;;;4200882;28;20047;-85
2022/09/20 03:53:52;;;;;;;6.15;1.08;;;7.80;77.00;;;;;;4200747;28;20239;-85
2022/09/20 03:56:20;;;;;;;6.90;1.42;;;7.70;77.00;;;;;;4202373;28;21044;-85
2022/09/20 03:58:27;;;;;;;4.80;0.85;;;7.80;77.20;;;;;;4203903;28;20415;-85
2022/09/20 04:01:02;;;;;;;8.10;1.40;;;7.70;77.10;;;;;;4202623;28;20012;-86
2022/09/20 04:03:27;;;;;;;8.73;1.20;;;7.70;77.20;;;;;;4200440;28;20027;-85
2022/09/20 04:05:54;;;;;;;6.63;1.27;;;7.70;77.20;;;;;;4202591;28;20085;-85
2022/09/20 04:08:16;;;;;;;7.72;1.02;;;7.70;77.20;;;;;;4203107;28;20383;-84
2022/09/20 04:10:35;;;;;;;9.60;0.90;;;7.70;77.10;;;;;;4199988;28;20384;-85
2022/09/20 04:13:15;;;;;;;7.85;1.13;;;7.70;77.00;;;;;;4203202;28;20039;-85
2022/09/20 04:16:05;;;;;;;8.00;1.52;;;7.70;77.00;;;;;;4199344;28;20658;-84
2022/09/20 04:18:56;;;;;;;3.53;0.90;;;7.70;77.00;;;;;;4218610;28;20036;-86
2022/09/20 04:21:40;;;;;;;9.95;0.85;;;7.80;77.00;;;;;;4210663;28;21200;-85
2022/09/20 04:24:22;;;;;;;5.93;0.75;;;7.70;76.80;;;;;;4202501;28;20032;-86
2022/09/20 04:26:52;;;;;;;6.82;0.75;;;7.70;76.90;;;;;;4197256;28;20102;-85
2022/09/20 04:29:31;;;;;;;9.80;0.80;;;7.70;76.70;;;;;;4203827;28;20077;-86
2022/09/20 04:32:10;;;;;;;5.47;0.90;;;7.60;76.60;;;;;;4203642;28;20032;-86
2022/09/20 04:37:33;;;;;;;6.57;1.02;;;7.60;76.40;;;;;;4209123;28;20063;-85
2022/09/20 04:40:28;;;;;;;8.82;1.95;;;7.60;76.40;;;;;;4207315;28;20102;-86
2022/09/20 04:43:16;;;;;;;9.00;2.60;;;7.50;76.40;;;;;;4203127;28;20040;-86
2022/09/20 04:46:17;;;;;;;9.98;2.42;;;7.50;76.20;;;;;;4203879;28;20954;-86
2022/09/20 04:48:41;;;;;;;6.68;1.60;;;7.50;76.30;;;;;;4202965;28;20035;-86
2022/09/20 04:51:30;;;;;;;5.70;1.42;;;7.60;76.20;;;;;;4198718;28;20750;-85
2022/09/20 04:54:16;;;;;;;6.65;2.03;;;7.50;76.30;;;;;;4210271;28;20853;-86
2022/09/20 04:57:01;;;;;;;13.13;2.08;;;7.40;76.10;;;;;;4203290;28;20408;-85
2022/09/20 04:59:52;;;;;;;7.80;2.10;;;7.40;76.20;;;;;;4198603;28;20433;-85
2022/09/20 05:02:16;;;;;;;8.88;1.70;;;7.40;76.20;;;;;;4195728;28;20115;-86
2022/09/20 05:04:52;;;;;;;9.77;2.40;;;7.30;76.10;;;;;;4198249;28;20036;-85
2022/09/20 05:07:53;;;;;;;9.48;1.75;;;7.30;76.10;;;;;;4194019;28;22580;-85
2022/09/20 05:10:26;;;;;;;9.93;1.63;;;7.30;76.10;;;;;;4199471;28;20029;-86
2022/09/20 05:12:53;;;;;;;5.65;1.15;;;7.20;75.90;;;;;;4200951;28;20530;-85
2022/09/20 05:15:15;;;;;;;5.00;1.30;;;7.20;75.80;;;;;;4205146;28;20036;-85
2022/09/20 05:17:54;;;;;;;6.78;1.27;;;7.20;75.80;;;;;;4207529;28;20650;-85
2022/09/20 05:20:33;;;;;;;4.90;0.77;;;7.10;75.70;;;;;;4204127;28;20029;-85
2022/09/20 05:23:15;;;;;;;5.90;1.10;;;7.20;75.70;;;;;;4204696;28;20040;-85
2022/09/20 05:25:53;;;;;;;4.60;1.17;;;7.10;75.70;;;;;;4204680;28;20044;-85
2022/09/20 05:28:45;;;;;;;3.92;1.05;;;7.10;75.70;;;;;;4209089;28;20396;-85
2022/09/20 05:30:50;;;;;;;10.48;1.40;;;7.00;75.80;;;;;;4156524;28;20502;-85
2022/09/20 05:33:23;;;;;;;7.88;1.20;;;7.00;75.80;;;;;;4141122;28;20018;-85
2022/09/20 05:35:46;;;;;;;8.02;0.95;;;7.00;76.00;;;;;;4137509;28;20527;-85
2022/09/20 05:38:19;;;;;;;8.98;1.45;;;7.00;76.10;;;;;;4152835;28;20045;-85
2022/09/20 05:40:50;;;;;;;11.23;1.47;;;7.00;76.20;;;;;;4136629;28;20041;-85
2022/09/20 05:42:53;;;;;;;8.93;1.60;;;7.00;76.40;;;;;;4153393;28;20026;-84
2022/09/20 05:45:12;;;;;;;8.07;1.20;;;7.00;76.40;;;;;;4155464;28;20087;-84
2022/09/20 05:47:33;;;;;;;8.57;1.50;;;7.00;76.50;;;;;;4151109;28;20045;-85
2022/09/20 05:50:11;;;;;;;5.47;1.23;;;7.10;76.70;;;;;;4139776;28;20034;-84
2022/09/20 05:52:35;;;;;;;6.75;1.00;;;7.00;76.90;;;;;;4124276;28;20027;-84
2022/09/20 05:55:06;;;;;;;5.63;0.90;;;7.10;77.80;;;;;;4142447;28;20038;-86
2022/09/20 05:57:27;;;;;;;7.60;1.60;;;7.10;77.20;;;;;;4138860;28;20608;-85
2022/09/20 05:59:56;;;;;;;7.32;1.10;;;7.20;77.60;;;;;;4156040;28;20096;-85
2022/09/20 06:02:14;;;;;;;7.55;1.20;;;7.20;77.70;;;;;;4156260;28;20537;-85
2022/09/20 06:04:34;;;;;;;8.07;1.10;;;7.20;77.70;;;;;;4153638;28;20037;-84
2022/09/20 06:06:50;;;;;;;8.07;0.93;;;7.30;77.90;;;;;;4174008;28;20048;-85
2022/09/20 06:09:03;;;;;;;8.05;0.88;;;7.40;78.10;;;;;;4200590;28;20025;-85
2022/09/20 06:11:17;;;;;;;9.57;1.23;;;7.40;78.20;;;;;;4202301;28;20039;-85
2022/09/20 06:13:36;;;;;;;;;;;7.40;78.20;;;;;;4202904;28;20024;-85
2022/09/20 06:16:04;;;;;;;3.88;1.02;;;7.50;79.00;;;;;;4199680;28;19927;-85
2022/09/20 06:18:22;;;;;;;8.05;1.23;;;7.60;78.30;;;;;;4200713;28;20074;-86
2022/09/20 06:20:35;;;;;;;11.38;1.17;;;7.60;78.50;;;;;;4206706;28;20436;-85
2022/09/20 06:22:44;;;;;;;5.00;1.10;;;7.70;78.50;;;;;;4203637;28;20025;-86
2022/09/20 06:24:57;;;;;;;11.82;1.23;;;7.70;78.60;;;;;;4216076;28;20031;-85
2022/09/20 06:27:01;;;;;;;7.93;1.23;;;7.90;78.80;;;;;;4218708;28;20020;-84
2022/09/20 06:29:09;;;;;;;6.95;1.02;;;7.80;78.90;;;;;;4201288;28;20028;-85
2022/09/20 06:31:10;;;;;;;13.50;1.65;;;7.80;79.00;;;;;;4201334;28;20031;-85
2022/09/20 06:33:22;;;;;;;7.57;1.33;;;7.90;79.10;;;;;;4215169;28;20067;-85
2022/09/20 06:35:34;;;;;;;9.68;1.33;;;8.00;79.30;;;;;;4203182;28;20043;-85
2022/09/20 06:43:06;;;;;;;14.55;3.15;;;8.20;79.70;;;;;;4206210;28;20024;-85
2022/09/20 06:45:07;;;;;;;11.00;3.58;;;8.30;79.60;;;;;;4203015;28;20039;-85
2022/09/20 06:47:12;;;;;;;9.15;2.17;;;8.40;79.70;;;;;;4203171;28;20038;-85
2022/09/20 06:49:13;;;;;;;9.52;1.33;;;8.50;80.00;;;;;;4206037;28;20376;-86
2022/09/20 06:51:13;;;;;;;15.63;1.67;;;8.50;80.00;;;;;;4203045;28;20051;-85
2022/09/20 06:53:17;;;;;;;6.28;1.38;;;8.60;80.10;;;;;;4208731;28;20484;-86
2022/09/20 06:55:23;;;;;;;;;;;8.70;80.20;;;;;;4202420;28;20056;-85
2022/09/20 06:57:35;;;;;;;13.65;1.65;;;8.70;80.60;;;;;;4204702;28;19908;-86
2022/09/20 06:59:35;;;;;;;9.63;1.17;;;8.80;80.00;;;;;;4200834;28;20488;-86
2022/09/20 07:01:36;;;;;;;10.98;1.33;;;8.90;80.10;;;;;;4187280;28;20029;-85
2022/09/20 07:03:37;;;;;;;8.23;1.48;;;9.00;80.10;;;;;;4201737;28;20422;-86
2022/09/20 07:05:38;;;;;;;11.07;1.38;;;9.00;80.20;;;;;;4202173;28;20139;-86
2022/09/20 07:07:39;;;;;;;12.38;1.77;;;9.10;80.30;;;;;;4200306;28;20078;-86
2022/09/20 07:10:00;;;;;;;8.88;1.45;;;9.20;80.30;;;;;;4206816;28;20032;-86
2022/09/20 07:12:20;;;;;;;10.35;1.63;;;9.30;80.40;;;;;;4205139;28;20033;-85
2022/09/20 07:14:41;;;;;;;9.77;1.50;;;9.40;80.50;;;;;;4203360;28;20024;-86
2022/09/20 07:17:03;;;;;;;10.73;1.20;;;9.50;80.50;;;;;;4202517;28;20035;-86
2022/09/20 07:19:23;;;;;;;11.00;1.08;;;9.50;80.40;;;;;;4203840;28;20497;-86
2022/09/20 07:21:44;;;;;;;8.05;1.30;;;9.70;80.50;;;;;;4206734;28;20082;-86
2022/09/20 07:24:04;;;;;;;15.05;1.52;;;9.80;80.20;;;;;;4201277;28;20032;-86
2022/09/20 07:26:28;;;;;;;12.25;1.63;;;9.80;80.00;;;;;;4211892;28;20028;-86
2022/09/20 07:28:49;;;;;;;11.25;1.48;;;10.00;79.80;;;;;;4209918;28;20029;-86
2022/09/20 07:31:09;;;;;;;7.95;1.10;;;9.90;79.70;;;;;;4207889;28;20028;-86
2022/09/20 07:33:15;;;;;;;10.15;1.33;;;10.10;79.70;;;;;;4213260;28;20027;-86
2022/09/20 07:35:16;;;;;;;19.23;1.85;;;10.10;79.60;;;;;;4202960;28;20514;-86
2022/09/20 07:37:18;;;;;;;11.75;1.50;;;10.20;79.60;;;;;;4209679;28;20028;-85
2022/09/20 07:39:18;;;;;;;9.90;1.10;;;10.30;79.30;;;;;;4212879;28;20582;-86
2022/09/20 07:41:21;;;;;;;9.60;1.35;;;10.40;79.30;;;;;;4208109;28;20059;-86
2022/09/20 07:43:23;;;;;;;9.05;1.48;;;10.40;79.00;;;;;;4202954;28;20032;-86
2022/09/20 07:45:24;;;;;;;7.70;1.10;;;10.40;78.90;;;;;;4206569;28;20139;-86
2022/09/20 07:47:26;;;;;;;8.85;1.77;;;10.50;78.70;;;;;;4206694;28;20028;-86
2022/09/20 07:49:30;;;;;;;7.65;1.52;;;10.60;78.40;;;;;;4213727;28;20020;-86
2022/09/20 07:51:31;;;;;;;15.20;1.67;;;10.60;78.10;;;;;;4210221;28;20054;-86
2022/09/20 07:53:32;;;;;;;9.02;1.63;;;10.70;77.90;;;;;;4209440;28;20021;-86
2022/09/20 07:55:34;;;;;;;14.35;1.67;;;10.80;77.60;;;;;;4204194;28;20097;-86
2022/09/20 07:57:36;;;;;;;14.05;1.63;;;10.90;77.40;;;;;;4206561;28;20059;-86
2022/09/20 07:59:37;;;;;;;12.95;1.52;;;10.90;77.10;;;;;;4201256;28;20417;-87
2022/09/20 08:01:39;;;;;;;15.23;2.70;;;11.00;77.10;;;;;;4208282;28;20123;-87
2022/09/20 08:03:41;;;;;;;8.55;1.50;;;11.00;76.90;;;;;;4212016;28;20032;-86
2022/09/20 08:05:42;;;;;;;9.35;1.42;;;11.10;76.70;;;;;;4205221;28;20085;-85
2022/09/20 08:07:43;;;;;;;10.20;2.33;;;11.20;76.20;;;;;;4207171;28;20024;-87
2022/09/20 08:09:43;;;;;;;17.52;3.40;;;11.20;76.00;;;;;;4206165;28;20055;-87
2022/09/20 08:11:45;;;;;;;14.18;2.28;;;11.30;75.80;;;;;;4204008;28;20499;-86
2022/09/20 08:13:48;;;;;;;9.07;2.58;;;11.40;75.70;;;;;;4214515;28;20034;-86
2022/09/20 08:15:48;;;;;;;17.75;1.90;;;11.50;75.60;;;;;;4192631;28;20098;-86
2022/09/20 08:17:49;;;;;;;11.35;1.70;;;11.50;75.30;;;;;;4208902;28;20028;-86
2022/09/20 08:19:51;;;;;;;12.30;1.63;;;11.60;74.90;;;;;;4211271;28;20031;-86
2022/09/20 08:21:53;;;;;;;14.52;2.72;;;11.60;74.50;;;;;;4202567;28;20070;-86
2022/09/20 08:23:53;;;;;;;13.30;3.22;;;11.70;73.80;;;;;;4206569;28;20035;-86
2022/09/20 08:25:56;;;;;;;15.15;3.08;;;11.80;73.70;;;;;;4209524;28;20025;-87
2022/09/20 08:27:56;;;;;;;18.70;2.80;;;11.80;73.10;;;;;;4209383;28;20075;-87
2022/09/20 08:29:57;;;;;;;9.73;1.70;;;11.90;72.90;;;;;;4203585;28;20021;-86
2022/09/20 08:32:00;;;;;;;12.05;1.42;;;11.90;72.70;;;;;;4207200;28;20031;-86
2022/09/20 08:34:02;;;;;;;8.73;2.05;;;12.00;72.30;;;;;;4209165;28;20590;-86
2022/09/20 08:36:04;;;;;;;16.27;2.10;;;12.00;72.10;;;;;;4202121;28;20385;-86
2022/09/20 08:38:06;;;;;;;8.98;1.42;;;12.10;72.20;;;;;;4201827;28;20028;-87
2022/09/20 08:40:11;;;;;;;10.25;1.23;;;12.20;71.70;;;;;;4203608;28;20085;-87
2022/09/20 08:42:17;;;;;;;16.00;1.80;;;12.20;71.20;;;;;;4201810;28;20020;-87
2022/09/20 08:44:24;;;;;;;12.73;1.73;;;12.40;70.80;;;;;;4202024;28;20036;-86
2022/09/20 08:46:28;;;;;;;10.38;1.45;;;12.40;70.30;;;;;;4202495;28;20069;-86
2022/09/20 08:48:32;;;;;;;7.95;1.45;;;12.50;70.00;;;;;;4202956;28;20035;-86
2022/09/20 08:50:33;;;;;;;28.15;2.70;;;12.50;69.90;;;;;;4197514;28;20065;-87
2022/09/20 08:52:38;;;;;;;41.45;2.50;;;12.50;69.50;;;;;;4203112;28;20677;-87
2022/09/20 08:54:42;;;;;;;44.15;5.38;;;12.60;69.40;;;;;;4198887;28;20033;-86
2022/09/20 08:56:47;;;;;;;29.83;2.85;;;12.60;69.20;;;;;;4201230;28;20062;-86
2022/09/20 08:58:48;;;;;;;63.10;4.30;;;12.70;69.00;;;;;;4198048;28;20486;-87
2022/09/20 09:00:49;;;;;;;68.65;5.25;;;12.70;69.00;;;;;;4200226;28;20020;-86
2022/09/20 09:02:53;;;;;;;13.85;1.20;;;12.80;68.70;;;;;;4198367;28;20043;-86
2022/09/20 09:04:54;;;;;;;15.10;1.75;;;12.80;68.40;;;;;;4198175;28;20029;-87
2022/09/20 09:06:55;;;;;;;14.25;1.70;;;12.90;68.40;;;;;;4200517;28;20024;-87
2022/09/20 09:08:58;;;;;;;11.98;1.83;;;13.00;68.20;;;;;;4206072;28;20058;-87
2022/09/20 09:11:08;;;;;;;47.10;3.97;;;13.10;67.80;;;;;;4204601;28;20035;-87
2022/09/20 09:13:20;;;;;;;38.63;3.20;;;13.10;67.70;;;;;;4208502;28;20034;-86
2022/09/20 09:15:28;;;;;;;34.15;3.30;;;13.10;67.20;;;;;;4207934;28;20102;-87
2022/09/20 09:17:30;;;;;;;11.15;1.92;;;13.30;67.30;;;;;;4206207;28;20501;-86
2022/09/20 09:19:42;;;;;;;12.32;1.75;;;13.30;66.90;;;;;;4202580;28;20039;-86
2022/09/20 09:21:43;;;;;;;8.63;1.50;;;13.40;66.20;;;;;;4205580;28;20039;-87
2022/09/20 09:23:52;;;;;;;12.55;1.70;;;13.40;65.90;;;;;;4208529;28;20036;-87
2022/09/20 09:25:54;;;;;;;6.72;1.25;;;13.40;65.50;;;;;;4204094;28;20052;-87
2022/09/20 09:28:08;;;;;;;18.38;2.05;;;13.50;65.80;;;;;;4210484;28;20030;-87
2022/09/20 09:30:20;;;;;;;20.10;1.38;;;13.50;65.50;;;;;;4207673;28;20031;-87
2022/09/20 09:32:30;;;;;;;16.73;1.45;;;13.60;65.40;;;;;;4208921;28;20024;-86
2022/09/20 09:34:37;;;;;;;16.25;1.98;;;13.70;65.00;;;;;;4206472;28;20024;-87
2022/09/20 09:36:43;;;;;;;12.75;1.70;;;13.70;64.70;;;;;;4204298;28;20012;-87
2022/09/20 09:38:45;;;;;;;16.20;1.80;;;13.80;64.80;;;;;;4207207;28;20039;-86
2022/09/20 09:41:00;;;;;;;11.27;1.13;;;13.80;65.00;;;;;;4207959;28;20041;-86
2022/09/20 09:43:02;;;;;;;9.05;1.80;;;13.90;64.40;;;;;;4204922;28;20022;-86
2022/09/20 09:45:25;;;;;;;10.23;1.48;;;13.90;64.80;;;;;;4211101;28;20048;-87
2022/09/20 09:47:28;;;;;;;10.70;1.33;;;14.00;64.20;;;;;;4204629;28;20078;-86
2022/09/20 09:49:32;;;;;;;9.95;1.23;;;14.10;64.10;;;;;;4202663;28;20301;-87
2022/09/20 09:51:35;;;;;;;12.75;1.15;;;14.20;63.80;;;;;;4204921;28;20032;-86
2022/09/20 09:53:37;;;;;;;7.72;1.38;;;14.10;63.50;;;;;;4206190;28;20089;-86
2022/09/20 09:56:01;;;;;;;13.13;1.27;;;14.20;63.40;;;;;;4189621;28;20443;-86
2022/09/20 09:58:25;;;;;;;10.32;1.48;;;14.20;62.40;;;;;;4198921;28;20036;-86
2022/09/20 10:00:27;;;;;;;7.97;1.27;;;14.30;62.40;;;;;;4209135;28;20020;-87
2022/09/20 10:03:00;;;;;;;5.30;0.98;;;14.30;62.70;;;;;;4204944;28;20052;-87
2022/09/20 10:05:25;;;;;;;9.63;1.10;;;14.40;62.50;;;;;;4206846;28;20032;-87
2022/09/20 10:08:16;;;;;;;9.13;1.33;;;14.40;62.10;;;;;;4207478;28;20039;-87
2022/09/20 10:10:58;;;;;;;9.35;1.88;;;14.50;61.80;;;;;;4175181;28;20315;-86
2022/09/20 10:13:15;;;;;;;9.02;1.05;;;14.50;62.10;;;;;;4169710;28;20072;-86
2022/09/20 10:15:44;;;;;;;7.07;1.63;;;14.60;61.80;;;;;;4156765;28;20029;-87
2022/09/20 10:17:54;;;;;;;9.05;1.30;;;14.60;61.40;;;;;;4154968;28;20169;-87
2022/09/20 10:20:24;;;;;;;9.07;1.15;;;14.70;61.80;;;;;;4156191;28;20453;-86
2022/09/20 10:22:40;;;;;;;11.05;1.20;;;14.70;60.50;;;;;;4172868;28;20071;-87
2022/09/20 10:25:02;;;;;;;6.43;1.15;;;14.70;61.10;;;;;;4174687;28;20497;-86
2022/09/20 10:27:21;;;;;;;9.65;1.63;;;14.80;60.50;;;;;;4173451;28;20037;-87
2022/09/20 10:29:32;;;;;;;6.68;1.13;;;14.90;60.30;;;;;;4175513;28;20025;-87
2022/09/20 10:31:45;;;;;;;5.78;1.27;;;15.00;60.00;;;;;;4170905;28;20045;-86
2022/09/20 10:34:35;;;;;;;5.88;1.48;;;15.00;60.40;;;;;;4179113;28;20037;-87
2022/09/20 10:36:46;;;;;;;6.57;1.20;;;15.00;59.10;;;;;;4145935;28;20040;-87
2022/09/20 10:39:10;;;;;;;6.35;0.98;;;15.10;59.60;;;;;;4158140;28;20057;-86
2022/09/20 10:43:44;;;;;;;5.80;0.82;;;15.10;59.30;;;;;;4161306;28;20330;-86
2022/09/20 10:46:08;;;;;;;7.88;1.65;;;15.20;58.60;;;;;;4184949;28;20036;-87
2022/09/20 10:48:24;;;;;;;17.33;0.98;;;15.20;58.30;;;;;;4207516;28;20023;-87
2022/09/20 10:50:55;;;;;;;6.07;1.13;;;15.20;58.20;;;;;;4202335;28;20024;-87
2022/09/20 10:53:21;;;;;;;5.32;1.00;;;15.30;58.20;;;;;;4201964;28;20514;-87
2022/09/20 10:55:33;;;;;;;7.20;1.13;;;15.30;58.00;;;;;;4210661;28;20020;-87
2022/09/20 10:57:37;;;;;;;4.47;0.85;;;15.30;57.20;;;;;;4203110;28;20035;-87
2022/09/20 11:00:06;;;;;;;9.00;0.93;;;15.40;56.60;;;;;;4207673;28;20093;-87
2022/09/20 11:02:22;;;;;;;7.28;1.00;;;15.40;56.80;;;;;;4201681;28;20480;-87
2022/09/20 11:04:41;;;;;;;8.15;0.90;;;15.40;57.20;;;;;;4204614;28;20028;-87
2022/09/20 11:07:19;;;;;;;12.45;1.85;;;15.40;57.60;;;;;;4202137;28;20701;-87
2022/09/20 11:09:25;;;;;;;6.93;1.13;;;15.50;57.10;;;;;;4222040;28;20028;-87
2022/09/20 11:11:49;;;;;;;6.25;1.13;;;15.50;57.20;;;;;;4200179;28;20032;-87
2022/09/20 11:14:20;;;;;;;8.93;1.48;;;15.50;56.50;;;;;;4200979;28;20028;-87
2022/09/20 11:16:36;;;;;;;7.28;0.95;;;15.50;56.10;;;;;;4190994;28;20036;-86
2022/09/20 11:18:59;;;;;;;7.95;1.10;;;15.60;56.10;;;;;;4207590;28;20028;-87
2022/09/20 11:21:07;;;;;;;6.63;0.93;;;15.60;55.40;;;;;;4191518;28;20399;-88
2022/09/20 11:23:48;;;;;;;7.13;1.00;;;15.60;56.10;;;;;;4203775;28;20492;-87
2022/09/20 11:25:54;;;;;;;4.40;0.82;;;15.70;55.40;;;;;;4172154;28;20415;-87
2022/09/20 11:28:05;;;;;;;9.07;1.08;;;15.70;56.20;;;;;;4219685;28;20027;-87
2022/09/20 11:30:20;;;;;;;4.22;0.63;;;15.80;55.40;;;;;;4208574;28;20032;-86
2022/09/20 11:32:28;;;;;;;3.92;0.60;;;15.80;52.30;;;;;;4200334;28;20024;-87
2022/09/20 11:34:36;;;;;;;3.00;0.60;;;15.80;53.50;;;;;;4214031;28;20530;-88
2022/09/20 11:36:56;;;;;;;4.47;0.77;;;15.80;53.40;;;;;;4201082;28;20521;-87
2022/09/20 11:39:03;;;;;;;1.77;0.40;;;15.80;50.20;;;;;;4200338;28;20439;-86
2022/09/20 11:41:26;;;;;;;4.90;0.70;;;15.80;51.00;;;;;;4202283;28;20024;-87
2022/09/20 11:43:29;;;;;;;4.13;0.43;;;15.90;51.10;;;;;;4199728;28;20016;-88
2022/09/20 11:45:30;;;;;;;3.03;0.60;;;15.90;51.90;;;;;;4201603;28;20658;-87
2022/09/20 11:47:44;;;;;;;4.20;0.70;;;15.90;51.90;;;;;;4201335;28;20047;-86
2022/09/20 11:50:06;;;;;;;1.83;0.47;;;16.00;51.50;;;;;;4204626;28;20023;-87
2022/09/20 11:52:54;;;;;;;5.78;0.73;;;16.00;50.60;;;;;;4200987;28;20031;-87
2022/09/20 11:55:13;;;;;;;8.27;0.93;;;16.00;50.20;;;;;;4157812;28;20536;-87
2022/09/20 11:57:15;;;;;;;3.38;0.65;;;16.00;50.30;;;;;;4155861;28;20063;-87
2022/09/20 11:59:27;;;;;;;3.00;0.68;;;16.00;50.90;;;;;;4138736;28;20060;-88